Potter, Nebraska
Current Conditions -  °F | °C
As of 3:15 PM on Saturday 25 Oct 2014 (Local Time) from KIBM Reporting Station
Clear Clear  
Wind Chill: 78°   Ceiling: Unl
Heat Index: 78°   Visibility: 10mi
Dew Point: 29°   Wind: 8mph
Humidity: 17%   Direction: 170°S
Pressure: 30.07"   Gusts: NA
Location:  41.22°N, 103.32°W
Report Text: KIBM 252115Z AUTO 17007KT 10SM CLR 26/M01 A3007 RMK AO2 T02581015
Loading
Personal Weather Stations






























Interactive Weather Map
Tropical Storm Tracking
New forecast layout! Learn more

10-Day Weather Forecast

Advertisements
Track Severe Weather on mobile